Time,TemperatureF,DewpointF,PressureIn,WindDirection,WindDirectionDegrees,WindSpeedMPH,WindSpeedGustMPH,Humidity,HourlyPrecipIn,Conditions,Clouds,dailyrainin,SoftwareType,DateUTC
2013-01-14 00:04:00,76.0,65.0,30.09,SE,137,17.0,22.0,68,0.00,,,0.00,,2013-01-14 05:04:00,
2013-01-14 00:12:00,76.0,65.0,30.09,SE,137,17.0,22.0,68,0.00,,,0.00,,2013-01-14 05:12:00,
2013-01-14 00:22:00,76.0,65.0,30.09,ESE,111,17.0,20.0,68,0.00,,,0.00,,2013-01-14 05:22:00,
2013-01-14 00:33:00,76.0,67.0,30.09,SE,136,15.0,19.0,73,0.00,,,0.00,,2013-01-14 05:33:00,
2013-01-14 00:42:00,76.0,67.0,30.09,SE,136,15.0,19.0,73,0.00,,,0.00,,2013-01-14 05:42:00,
2013-01-14 00:53:00,76.0,67.0,30.09,SE,134,18.0,22.0,73,0.00,,,0.00,,2013-01-14 05:53:00,
2013-01-14 01:03:00,76.0,66.0,30.09,SE,127,15.0,21.0,72,0.00,,,0.00,,2013-01-14 06:03:00,
2013-01-14 01:12:00,76.0,66.0,30.09,SE,127,15.0,21.0,72,0.00,,,0.00,,2013-01-14 06:12:00,
2013-01-14 01:22:00,76.0,66.0,30.09,SE,136,20.0,25.0,71,0.00,,,0.00,,2013-01-14 06:22:00,
2013-01-14 01:33:00,76.0,65.0,30.09,SE,137,22.0,26.0,68,0.00,,,0.00,,2013-01-14 06:33:00,
2013-01-14 01:43:00,76.0,65.0,30.09,SE,137,22.0,26.0,68,0.00,,,0.00,,2013-01-14 06:43:00,
2013-01-14 01:53:00,76.0,65.0,30.09,SE,125,21.0,23.0,69,0.00,,,0.00,,2013-01-14 06:53:00,
2013-01-14 02:02:00,76.0,65.0,30.09,ESE,105,19.0,23.0,68,0.00,,,0.00,,2013-01-14 07:02:00,
2013-01-14 02:12:00,76.0,65.0,30.09,ESE,105,19.0,23.0,68,0.00,,,0.00,,2013-01-14 07:12:00,
2013-01-14 02:23:00,76.0,66.0,30.10,ESE,105,18.0,25.0,72,0.00,,,0.00,,2013-01-14 07:23:00,
2013-01-14 02:33:00,76.0,66.0,30.09,SE,139,20.0,23.0,72,0.00,,,0.00,,2013-01-14 07:33:00,
2013-01-14 02:42:00,76.0,66.0,30.09,SE,139,20.0,23.0,72,0.00,,,0.00,,2013-01-14 07:42:00,
2013-01-14 02:53:00,76.0,67.0,30.09,SE,138,20.0,28.0,74,0.00,,,0.00,,2013-01-14 07:53:00,
2013-01-14 03:02:00,76.0,67.0,30.09,ESE,113,19.0,23.0,73,0.00,,,0.00,,2013-01-14 08:02:00,
2013-01-14 03:12:00,76.0,67.0,30.09,ESE,113,19.0,23.0,73,0.00,,,0.00,,2013-01-14 08:12:00,
2013-01-14 03:22:00,76.0,65.0,30.09,SE,138,22.0,25.0,70,0.00,,,0.00,,2013-01-14 08:22:00,
2013-01-14 03:33:00,76.0,64.0,30.09,SE,125,20.0,27.0,67,0.00,,,0.00,,2013-01-14 08:33:00,
2013-01-14 03:42:00,76.0,64.0,30.09,SE,125,20.0,27.0,67,0.00,,,0.00,,2013-01-14 08:42:00,
2013-01-14 03:53:00,76.0,64.0,30.09,SE,128,14.0,20.0,67,0.00,,,0.00,,2013-01-14 08:53:00,
2013-01-14 04:02:00,76.0,66.0,30.09,SE,131,15.0,19.0,71,0.00,,,0.00,,2013-01-14 09:02:00,
2013-01-14 04:12:00,76.0,66.0,30.09,SE,131,15.0,19.0,71,0.00,,,0.00,,2013-01-14 09:12:00,
2013-01-14 04:23:00,76.0,65.0,30.08,ESE,121,11.0,19.0,69,0.00,,,0.00,,2013-01-14 09:23:00,
2013-01-14 04:33:00,76.0,67.0,30.08,ESE,114,13.0,18.0,73,0.00,,,0.00,,2013-01-14 09:33:00,
2013-01-14 04:43:00,76.0,67.0,30.08,ESE,114,13.0,18.0,73,0.00,,,0.00,,2013-01-14 09:43:00,
2013-01-14 04:53:00,76.0,67.0,30.08,SE,134,14.0,20.0,74,0.00,,,0.00,,2013-01-14 09:53:00,
2013-01-14 05:02:00,75.0,67.0,30.08,ESE,109,17.0,20.0,77,0.00,,,0.00,,2013-01-14 10:02:00,
2013-01-14 05:12:00,75.0,67.0,30.08,ESE,109,17.0,20.0,77,0.00,,,0.00,,2013-01-14 10:12:00,
2013-01-14 05:23:00,75.0,67.0,30.07,ESE,123,19.0,23.0,77,0.00,,,0.00,,2013-01-14 10:23:00,
2013-01-14 05:32:00,75.0,67.0,30.08,SE,132,19.0,21.0,77,0.00,,,0.00,,2013-01-14 10:32:00,
2013-01-14 05:42:00,75.0,67.0,30.08,SE,132,19.0,21.0,77,0.00,,,0.00,,2013-01-14 10:42:00,
2013-01-14 05:53:00,75.0,66.0,30.08,East,100,17.0,23.0,74,0.00,,,0.00,,2013-01-14 10:53:00,
2013-01-14 06:02:00,75.0,65.0,30.08,SE,136,18.0,24.0,72,0.00,,,0.00,,2013-01-14 11:02:00,
2013-01-14 06:12:00,75.0,65.0,30.08,SE,136,18.0,24.0,72,0.00,,,0.00,,2013-01-14 11:12:00,
2013-01-14 06:22:00,76.0,66.0,30.09,South,173,18.0,24.0,71,0.00,,,0.00,,2013-01-14 11:22:00,
2013-01-14 06:33:00,75.0,64.0,30.09,SE,130,16.0,23.0,68,0.00,,,0.00,,2013-01-14 11:33:00,
2013-01-14 06:43:00,75.0,64.0,30.09,SE,130,16.0,23.0,68,0.00,,,0.00,,2013-01-14 11:43:00,
2013-01-14 06:53:00,75.0,65.0,30.10,SE,134,13.0,18.0,70,0.00,,,0.00,,2013-01-14 11:53:00,
2013-01-14 07:03:00,75.0,65.0,30.10,SE,136,14.0,18.0,70,0.00,,,0.00,,2013-01-14 12:03:00,
2013-01-14 07:12:00,75.0,65.0,30.10,SE,136,14.0,18.0,70,0.00,,,0.00,,2013-01-14 12:12:00,
2013-01-14 07:23:00,75.0,63.0,30.10,SE,127,14.0,20.0,66,0.00,,,0.00,,2013-01-14 12:23:00,
2013-01-14 07:33:00,76.0,64.0,30.11,SE,132,12.0,16.0,66,0.00,,,0.00,,2013-01-14 12:33:00,
2013-01-14 07:43:00,76.0,64.0,30.11,SE,132,12.0,16.0,66,0.00,,,0.00,,2013-01-14 12:43:00,
2013-01-14 07:53:00,76.0,67.0,30.11,ESE,116,15.0,18.0,73,0.00,,,0.00,,2013-01-14 12:53:00,
2013-01-14 08:03:00,76.0,65.0,30.11,ESE,120,17.0,22.0,70,0.00,,,0.00,,2013-01-14 13:03:00,
2013-01-14 08:12:00,76.0,65.0,30.11,ESE,120,17.0,22.0,70,0.00,,,0.00,,2013-01-14 13:12:00,
2013-01-14 08:23:00,76.0,65.0,30.12,ESE,117,14.0,20.0,69,0.00,,,0.00,,2013-01-14 13:23:00,
2013-01-14 08:33:00,76.0,65.0,30.12,SE,136,18.0,21.0,68,0.00,,,0.00,,2013-01-14 13:33:00,
2013-01-14 08:43:00,76.0,65.0,30.12,SE,136,18.0,21.0,68,0.00,,,0.00,,2013-01-14 13:43:00,
2013-01-14 08:53:00,76.0,64.0,30.12,SE,132,17.0,20.0,67,0.00,,,0.00,,2013-01-14 13:53:00,
2013-01-14 09:03:00,76.0,65.0,30.12,SE,143,13.0,19.0,70,0.00,,,0.00,,2013-01-14 14:03:00,
2013-01-14 09:13:00,76.0,65.0,30.12,SE,143,13.0,19.0,70,0.00,,,0.00,,2013-01-14 14:13:00,
2013-01-14 09:23:00,76.0,66.0,30.13,ESE,117,13.0,19.0,72,0.00,,,0.00,,2013-01-14 14:23:00,
2013-01-14 09:33:00,76.0,67.0,30.13,SE,142,16.0,22.0,74,0.00,,,0.00,,2013-01-14 14:33:00,
2013-01-14 09:43:00,76.0,67.0,30.13,SE,142,16.0,22.0,74,0.00,,,0.00,,2013-01-14 14:43:00,
2013-01-14 09:53:00,76.0,67.0,30.13,SE,131,19.0,24.0,75,0.00,,,0.00,,2013-01-14 14:53:00,
2013-01-14 10:03:00,76.0,67.0,30.13,SE,124,19.0,23.0,75,0.00,,,0.00,,2013-01-14 15:03:00,
2013-01-14 10:12:00,76.0,67.0,30.13,SE,124,19.0,23.0,75,0.00,,,0.00,,2013-01-14 15:12:00,
2013-01-14 10:23:00,76.0,67.0,30.13,SE,130,21.0,24.0,73,0.00,,,0.00,,2013-01-14 15:23:00,
2013-01-14 10:33:00,76.0,67.0,30.12,SE,128,20.0,26.0,75,0.00,,,0.00,,2013-01-14 15:33:00,
2013-01-14 10:43:00,76.0,67.0,30.12,SE,128,20.0,26.0,75,0.00,,,0.00,,2013-01-14 15:43:00,
2013-01-14 10:53:00,76.0,67.0,30.12,East,91,16.0,22.0,74,0.00,,,0.00,,2013-01-14 15:53:00,
2013-01-14 11:03:00,76.0,67.0,30.12,ESE,110,18.0,23.0,73,0.00,,,0.00,,2013-01-14 16:03:00,
2013-01-14 11:12:00,76.0,67.0,30.12,ESE,110,18.0,23.0,73,0.00,,,0.00,,2013-01-14 16:12:00,
2013-01-14 11:23:00,76.0,67.0,30.12,SE,130,16.0,20.0,73,0.00,,,0.00,,2013-01-14 16:23:00,
2013-01-14 11:33:00,76.0,66.0,30.12,ESE,114,17.0,21.0,72,0.00,,,0.00,,2013-01-14 16:33:00,
2013-01-14 11:43:00,76.0,66.0,30.12,ESE,114,17.0,21.0,72,0.00,,,0.00,,2013-01-14 16:43:00,
2013-01-14 11:53:00,77.0,66.0,30.11,SE,140,16.0,20.0,70,0.00,,,0.00,,2013-01-14 16:53:00,
2013-01-14 12:03:00,77.0,65.0,30.11,SE,126,16.0,20.0,67,0.00,,,0.00,,2013-01-14 17:03:00,
2013-01-14 12:12:00,77.0,65.0,30.11,SE,126,16.0,20.0,67,0.00,,,0.00,,2013-01-14 17:12:00,
2013-01-14 12:23:00,77.0,68.0,30.10,SE,127,13.0,18.0,73,0.00,,,0.00,,2013-01-14 17:23:00,
2013-01-14 12:33:00,76.0,66.0,30.10,ESE,114,16.0,20.0,72,0.00,,,0.00,,2013-01-14 17:33:00,
2013-01-14 12:43:00,76.0,66.0,30.10,ESE,114,16.0,20.0,72,0.00,,,0.00,,2013-01-14 17:43:00,
2013-01-14 12:54:00,76.0,67.0,30.10,ESE,104,16.0,20.0,74,0.00,,,0.00,,2013-01-14 17:54:00,
2013-01-14 13:03:00,76.0,67.0,30.10,ESE,115,13.0,19.0,74,0.00,,,0.00,,2013-01-14 18:03:00,
2013-01-14 13:13:00,76.0,67.0,30.10,ESE,117,15.0,20.0,74,0.00,,,0.00,,2013-01-14 18:13:00,
2013-01-14 13:23:00,76.0,67.0,30.10,ESE,117,15.0,20.0,74,0.00,,,0.00,,2013-01-14 18:23:00,
2013-01-14 13:33:00,76.0,68.0,30.09,ESE,108,14.0,21.0,76,0.00,,,0.00,,2013-01-14 18:33:00,
2013-01-14 13:43:00,76.0,68.0,30.09,ESE,108,14.0,21.0,76,0.00,,,0.00,,2013-01-14 18:43:00,
2013-01-14 13:53:00,76.0,67.0,30.09,East,100,18.0,20.0,75,0.00,,,0.00,,2013-01-14 18:53:00,
2013-01-14 14:03:00,76.0,68.0,30.09,ESE,112,16.0,19.0,77,0.00,,,0.00,,2013-01-14 19:03:00,
2013-01-14 14:13:00,76.0,68.0,30.09,ESE,112,16.0,19.0,77,0.00,,,0.00,,2013-01-14 19:13:00,
2013-01-14 14:22:00,76.0,69.0,30.09,East,98,18.0,22.0,78,0.00,,,0.00,,2013-01-14 19:22:00,
2013-01-14 14:33:00,76.0,68.0,30.09,ESE,104,17.0,21.0,76,0.00,,,0.00,,2013-01-14 19:33:00,
2013-01-14 14:43:00,76.0,68.0,30.09,ESE,104,17.0,21.0,76,0.00,,,0.00,,2013-01-14 19:43:00,
2013-01-14 14:53:00,76.0,68.0,30.09,ESE,114,17.0,21.0,76,0.00,,,0.00,,2013-01-14 19:53:00,
2013-01-14 15:03:00,76.0,67.0,30.09,East,100,17.0,21.0,75,0.00,,,0.00,,2013-01-14 20:03:00,
2013-01-14 15:13:00,76.0,67.0,30.09,East,100,17.0,21.0,75,0.00,,,0.00,,2013-01-14 20:13:00,
2013-01-14 15:23:00,76.0,67.0,30.08,ESE,121,16.0,22.0,75,0.00,,,0.00,,2013-01-14 20:23:00,
2013-01-14 15:33:00,76.0,68.0,30.08,SE,134,21.0,24.0,76,0.00,,,0.00,,2013-01-14 20:33:00,
2013-01-14 15:43:00,76.0,68.0,30.08,SE,134,21.0,24.0,76,0.00,,,0.00,,2013-01-14 20:43:00,
2013-01-14 15:53:00,76.0,69.0,30.09,ESE,111,15.0,23.0,78,0.00,,,0.00,,2013-01-14 20:53:00,
2013-01-14 16:03:00,76.0,67.0,30.09,ESE,108,19.0,23.0,75,0.00,,,0.00,,2013-01-14 21:03:00,
2013-01-14 16:12:00,76.0,67.0,30.09,ESE,108,19.0,23.0,75,0.00,,,0.00,,2013-01-14 21:12:00,
2013-01-14 16:23:00,76.0,67.0,30.09,ESE,114,18.0,22.0,75,0.00,,,0.00,,2013-01-14 21:23:00,
2013-01-14 16:33:00,76.0,67.0,30.09,ESE,113,19.0,24.0,75,0.00,,,0.00,,2013-01-14 21:33:00,
2013-01-14 16:43:00,76.0,67.0,30.09,ESE,113,19.0,24.0,75,0.00,,,0.00,,2013-01-14 21:43:00,
2013-01-14 16:53:00,76.0,67.0,30.10,ESE,108,19.0,23.0,74,0.00,,,0.00,,2013-01-14 21:53:00,
2013-01-14 17:03:00,76.0,67.0,30.10,ESE,109,21.0,23.0,74,0.00,,,0.00,,2013-01-14 22:03:00,
2013-01-14 17:12:00,76.0,67.0,30.10,ESE,109,21.0,23.0,74,0.00,,,0.00,,2013-01-14 22:12:00,
2013-01-14 17:23:00,76.0,67.0,30.10,ESE,109,21.0,23.0,74,0.00,,,0.00,,2013-01-14 22:23:00,
2013-01-14 17:33:00,76.0,67.0,30.10,ESE,109,21.0,23.0,74,0.00,,,0.00,,2013-01-14 22:33:00,